Time;durP1;ratioP1;P1;durP2;ratioP2;P2;SDS_P1;SDS_P2;PMS_P1;PMS_P2;Temp;Humidity;BMP_temperature;BMP_pressure;BME280_temperature;BME280_humidity;BME280_pressure;Samples;Min_cycle;Max_cycle;Signal;HPM_P1;HPM_P2
2022/04/27 00:00:26;;;;;;;21.15;14.73;;;;;;;14.57;80.90;100240.03;5115786;27;20039;-70
2022/04/27 00:02:52;;;;;;;18.73;14.15;;;;;;;14.54;81.38;100242.22;5130588;27;20030;-70
2022/04/27 00:05:18;;;;;;;18.80;13.98;;;;;;;14.50;81.41;100238.97;5130345;27;20098;-70
2022/04/27 00:07:43;;;;;;;16.50;13.18;;;;;;;14.47;81.33;100233.91;5112042;27;20067;-70
2022/04/27 00:10:09;;;;;;;18.52;13.65;;;;;;;14.35;81.53;100223.56;5112080;27;20015;-70
2022/04/27 00:12:34;;;;;;;17.23;13.00;;;;;;;14.44;81.14;100241.50;5109971;28;20035;-70
2022/04/27 00:15:00;;;;;;;18.38;14.27;;;;;;;14.41;80.45;100242.63;5120941;27;20062;-70
2022/04/27 00:17:26;;;;;;;16.50;13.52;;;;;;;14.36;80.15;100228.81;5128259;27;20082;-70
2022/04/27 00:19:51;;;;;;;15.98;11.98;;;;;;;14.42;79.92;100238.09;5109510;27;20024;-70
2022/04/27 00:22:16;;;;;;;16.52;13.68;;;;;;;14.42;78.88;100243.50;5100185;27;20065;-70
2022/04/27 00:24:42;;;;;;;16.90;12.57;;;;;;;14.33;78.99;100223.72;5130578;27;20088;-70
2022/04/27 00:27:07;;;;;;;16.98;12.50;;;;;;;14.44;78.57;100246.88;5118134;27;20015;-70
2022/04/27 00:29:33;;;;;;;15.68;12.07;;;;;;;14.40;79.20;100234.69;5109786;28;20050;-70
2022/04/27 00:31:58;;;;;;;18.35;14.32;;;;;;;14.41;79.49;100242.63;5120108;27;20097;-70
2022/04/27 00:34:24;;;;;;;16.30;13.20;;;;;;;14.43;79.73;100242.47;5120530;27;20531;-70
2022/04/27 00:36:50;;;;;;;15.90;11.95;;;;;;;14.45;79.23;100241.31;5123667;27;20023;-70
2022/04/27 00:39:17;;;;;;;15.68;12.98;;;;;;;14.41;78.78;100234.53;5104347;28;20537;-70
2022/04/27 00:42:02;;;;;;;17.58;11.85;;;;;;;14.40;77.98;100213.97;5114799;28;20050;-70
2022/04/27 00:44:32;;;;;;;13.85;10.68;;;;;;;14.49;77.04;100223.81;5128473;28;20015;-70
2022/04/27 00:46:59;;;;;;;12.27;9.65;;;;;;;14.52;76.39;100239.69;5130788;28;20106;-70
2022/04/27 00:49:26;;;;;;;14.80;10.93;;;;;;;14.42;75.33;100213.81;5131243;28;20102;-70
2022/04/27 00:51:51;;;;;;;10.90;9.80;;;;;;;14.57;75.79;100263.50;5110237;28;20023;-70
2022/04/27 00:54:22;;;;;;;12.50;10.13;;;;;;;14.56;75.43;100262.63;5110226;28;20111;-71
2022/04/27 00:56:48;;;;;;;13.70;10.00;;;;;;;14.57;75.35;100261.63;5091707;28;20059;-70
2022/04/27 00:59:14;;;;;;;15.38;11.75;;;;;;;14.54;75.96;100264.63;5113017;28;20061;-70
2022/04/27 01:01:40;;;;;;;16.35;12.25;;;;;;;14.58;76.16;100275.97;5110066;28;20998;-70
2022/04/27 01:04:07;;;;;;;18.23;12.25;;;;;;;14.48;76.26;100248.25;5109957;28;20039;-70
2022/04/27 01:06:37;;;;;;;14.15;11.07;;;;;;;14.60;75.89;100263.13;5119212;27;20483;-70
2022/04/27 01:09:03;;;;;;;13.95;11.45;;;;;;;14.61;75.63;100267.53;5123858;27;20035;-70
2022/04/27 01:11:30;;;;;;;13.80;10.40;;;;;;;14.61;75.21;100260.28;5095948;27;20111;-70
2022/04/27 01:13:55;;;;;;;14.25;11.43;;;;;;;14.57;74.75;100256.22;5131919;27;20034;-70
2022/04/27 01:16:21;;;;;;;13.30;11.25;;;;;;;14.65;75.15;100277.88;5107490;28;20027;-70
2022/04/27 01:18:46;;;;;;;10.88;9.60;;;;;;;14.65;75.21;100264.38;5104557;27;20031;-70
2022/04/27 01:21:12;;;;;;;15.25;10.77;;;;;;;14.65;76.04;100298.59;5129120;27;20099;-70
2022/04/27 01:23:39;;;;;;;11.40;10.13;;;;;;;14.66;76.18;100281.38;5133739;27;20027;-70
2022/04/27 01:26:08;;;;;;;15.88;10.85;;;;;;;14.61;76.73;100298.06;5115697;27;20103;-69
2022/04/27 01:28:37;;;;;;;17.75;11.77;;;;;;;14.64;78.74;100310.41;5108622;27;20035;-69
2022/04/27 01:31:05;;;;;;;14.48;11.35;;;;;;;14.64;83.24;100308.53;5119457;27;20019;-69
2022/04/27 01:33:34;;;;;;;17.40;11.43;;;;;;;14.65;86.22;100310.25;5108926;27;20035;-69
2022/04/27 01:36:00;;;;;;;14.63;11.20;;;;;;;14.64;86.61;100313.94;5096871;27;20023;-69
2022/04/27 01:38:26;;;;;;;11.40;10.20;;;;;;;14.61;87.56;100316.13;5126599;27;20231;-70
2022/04/27 01:40:55;;;;;;;11.32;10.02;;;;;;;14.58;88.70;100320.00;5123435;27;20027;-69
2022/04/27 01:43:24;;;;;;;11.88;10.15;;;;;;;14.52;90.19;100319.78;5095676;28;20127;-69
2022/04/27 01:45:52;;;;;;;14.80;11.93;;;;;;;14.42;91.08;100324.44;5124773;27;20031;-69
2022/04/27 01:48:18;;;;;;;13.65;10.90;;;;;;;14.46;91.87;100331.22;5132761;27;20094;-70
2022/04/27 01:50:43;;;;;;;15.38;12.57;;;;;;;14.38;92.00;100331.19;5127069;27;20119;-70
2022/04/27 01:55:53;;;;;;;25.05;16.98;;;;;;;14.33;94.51;100345.13;5115812;27;20297;-71
2022/04/27 01:58:19;;;;;;;19.15;15.00;;;;;;;14.37;94.86;100340.25;5095624;28;20118;-70
2022/04/27 02:00:46;;;;;;;20.75;15.43;;;;;;;14.25;94.84;100326.19;5113654;27;20738;-71
2022/04/27 02:03:13;;;;;;;22.55;17.10;;;;;;;14.06;96.29;100314.72;5095476;28;20039;-71
2022/04/27 02:05:39;;;;;;;22.38;16.52;;;;;;;14.05;97.27;100321.94;5117115;27;20030;-71
2022/04/27 02:08:05;;;;;;;22.13;16.50;;;;;;;13.99;97.49;100322.56;5120049;27;20027;-71
2022/04/27 02:10:30;;;;;;;20.75;16.70;;;;;;;14.03;97.18;100320.44;5117415;27;20072;-71
2022/04/27 02:12:55;;;;;;;21.33;15.82;;;;;;;13.95;97.30;100315.81;5119597;27;20050;-71
2022/04/27 02:15:21;;;;;;;21.90;16.02;;;;;;;13.85;98.25;100303.41;5125793;27;20035;-71
2022/04/27 02:17:46;;;;;;;20.33;14.95;;;;;;;13.85;98.08;100298.03;5101943;28;20035;-71
2022/04/27 02:20:12;;;;;;;22.77;16.42;;;;;;;13.71;99.60;100284.09;5122726;27;20034;-72
2022/04/27 02:22:37;;;;;;;21.13;15.68;;;;;;;13.62;100.00;100278.78;5127954;27;20023;-71
2022/04/27 02:25:04;;;;;;;18.23;14.23;;;;;;;13.67;100.00;100281.84;5133258;27;20030;-71
2022/04/27 02:27:29;;;;;;;23.33;16.55;;;;;;;13.66;100.00;100286.44;5106685;27;20030;-71
2022/04/27 02:29:55;;;;;;;22.08;16.38;;;;;;;13.66;100.00;100277.47;5109686;27;20481;-71
2022/04/27 02:32:20;;;;;;;23.98;16.60;;;;;;;13.62;100.00;100266.19;5130181;27;20356;-70
2022/04/27 02:34:46;;;;;;;27.67;18.73;;;;;;;13.66;100.00;100272.09;5124830;27;20031;-70
2022/04/27 02:37:11;;;;;;;23.80;16.60;;;;;;;13.72;100.00;100274.16;5132953;27;20627;-71
2022/04/27 02:39:37;;;;;;;22.65;16.83;;;;;;;13.68;100.00;100260.13;5132814;27;20034;-71
2022/04/27 02:42:03;;;;;;;23.42;16.65;;;;;;;13.73;100.00;100273.16;5097701;28;20027;-71
2022/04/27 02:44:28;;;;;;;20.80;15.02;;;;;;;13.74;100.00;100266.78;5115282;27;20063;-70
2022/04/27 02:46:54;;;;;;;21.95;14.90;;;;;;;13.64;100.00;100249.81;5114852;27;20042;-70
2022/04/27 02:52:03;;;;;;;15.30;12.27;;;;;;;13.66;100.00;100262.16;5123077;27;20033;-71
2022/04/27 02:54:29;;;;;;;17.73;12.73;;;;;;;13.71;100.00;100272.47;5130161;27;20015;-70
2022/04/27 02:56:54;;;;;;;14.98;11.43;;;;;;;13.67;100.00;100280.03;5114015;27;20479;-70
2022/04/27 02:59:20;;;;;;;15.50;10.90;;;;;;;13.67;100.00;100303.41;5132540;27;20057;-70
2022/04/27 03:01:46;;;;;;;14.65;11.32;;;;;;;13.76;100.00;100310.59;5132758;27;20088;-70
2022/04/27 03:04:11;;;;;;;18.92;11.75;;;;;;;13.74;100.00;100316.13;5132258;27;20038;-70
2022/04/27 03:06:37;;;;;;;16.20;11.50;;;;;;;13.71;100.00;100308.34;5126617;27;20024;-70
2022/04/27 03:09:02;;;;;;;15.30;11.25;;;;;;;13.68;100.00;100308.66;5111678;28;20024;-70
2022/04/27 03:11:28;;;;;;;14.75;12.15;;;;;;;13.69;100.00;100310.38;5111979;28;20392;-70
2022/04/27 03:13:53;;;;;;;15.43;11.73;;;;;;;13.72;100.00;100328.06;5111347;28;20073;-69
2022/04/27 03:16:19;;;;;;;15.38;11.93;;;;;;;13.70;100.00;100322.84;5111603;28;20023;-69
2022/04/27 03:18:45;;;;;;;16.23;12.05;;;;;;;13.68;100.00;100313.22;5111580;28;20027;-70
2022/04/27 03:21:12;;;;;;;15.15;12.57;;;;;;;13.67;100.00;100312.38;5114567;27;20497;-70
2022/04/27 03:23:37;;;;;;;15.27;12.63;;;;;;;13.66;100.00;100321.47;5113718;27;20114;-70
2022/04/27 03:26:03;;;;;;;16.65;12.60;;;;;;;13.62;100.00;100306.59;5129200;27;20608;-70
2022/04/27 03:28:28;;;;;;;14.38;12.38;;;;;;;13.58;100.00;100301.69;5131915;27;20027;-70
2022/04/27 03:30:54;;;;;;;15.70;12.60;;;;;;;13.59;100.00;100303.34;5131580;27;20148;-70
2022/04/27 03:33:20;;;;;;;16.05;12.27;;;;;;;13.58;100.00;100313.28;5131867;27;20043;-70
2022/04/27 03:35:46;;;;;;;15.38;12.52;;;;;;;13.61;100.00;100307.59;5113275;27;20499;-70
2022/04/27 03:38:13;;;;;;;16.67;12.13;;;;;;;13.54;100.00;100294.88;5118520;27;20035;-70
2022/04/27 03:40:39;;;;;;;15.77;13.25;;;;;;;13.53;100.00;100295.88;5129409;27;20034;-70
2022/04/27 03:43:05;;;;;;;16.33;13.05;;;;;;;13.50;100.00;100298.88;5109908;28;20035;-70
2022/04/27 03:45:30;;;;;;;15.88;13.73;;;;;;;13.59;100.00;100317.69;5111446;28;20016;-70
2022/04/27 03:47:56;;;;;;;14.27;12.30;;;;;;;13.57;100.00;100314.28;5112764;27;20110;-69
2022/04/27 03:50:21;;;;;;;15.05;12.27;;;;;;;13.56;100.00;100322.53;5125783;27;20031;-70
2022/04/27 03:52:47;;;;;;;17.15;13.75;;;;;;;13.54;100.00;100328.06;5119313;27;20083;-70
2022/04/27 03:55:13;;;;;;;15.93;13.32;;;;;;;13.52;100.00;100323.84;5125029;27;20024;-70
2022/04/27 03:57:39;;;;;;;16.77;13.95;;;;;;;13.50;100.00;100325.84;5122046;27;20030;-70
2022/04/27 04:00:06;;;;;;;18.55;14.15;;;;;;;13.45;100.00;100323.59;5119200;27;20050;-71
2022/04/27 04:02:32;;;;;;;17.50;14.15;;;;;;;13.38;100.00;100309.03;5100099;27;20042;-70
2022/04/27 04:04:58;;;;;;;17.02;13.88;;;;;;;13.48;100.00;100327.84;5115311;27;20379;-68
2022/04/27 04:07:23;;;;;;;18.45;14.63;;;;;;;13.47;100.00;100324.31;5097709;27;20027;-69
2022/04/27 04:09:48;;;;;;;16.42;14.43;;;;;;;13.46;100.00;100336.09;5119225;27;20030;-70
2022/04/27 04:12:14;;;;;;;18.98;14.50;;;;;;;13.51;100.00;100343.69;5121367;27;20035;-70
2022/04/27 04:14:39;;;;;;;19.63;14.18;;;;;;;13.48;100.00;100341.31;5095146;28;20053;-69
2022/04/27 04:17:05;;;;;;;16.58;13.52;;;;;;;13.41;100.00;100318.66;5128269;27;20027;-70
2022/04/27 04:19:34;;;;;;;15.65;13.75;;;;;;;13.50;100.00;100344.69;5103720;28;20085;-70
2022/04/27 04:22:00;;;;;;;19.10;13.60;;;;;;;13.45;100.00;100334.38;5092333;28;20027;-70
2022/04/27 04:24:26;;;;;;;18.33;13.20;;;;;;;13.48;100.00;100349.41;5095188;27;20045;-70
2022/04/27 04:29:36;;;;;;;18.20;14.07;;;;;;;13.47;100.00;100336.91;5120041;27;20027;-69
2022/04/27 04:32:01;;;;;;;15.05;12.68;;;;;;;13.48;100.00;100335.94;5130865;27;20459;-70
2022/04/27 04:34:27;;;;;;;16.35;12.18;;;;;;;13.43;100.00;100335.53;5128046;27;20038;-70
2022/04/27 04:36:52;;;;;;;13.77;12.27;;;;;;;13.46;100.00;100335.22;5122892;27;20038;-70
2022/04/27 04:39:18;;;;;;;17.60;12.93;;;;;;;13.41;100.00;100332.13;5107028;28;20026;-70
2022/04/27 04:41:43;;;;;;;13.73;11.98;;;;;;;13.46;99.46;100343.31;5120109;27;20031;-70
2022/04/27 04:44:09;;;;;;;13.52;11.32;;;;;;;13.46;98.45;100343.31;5114051;28;20023;-69
2022/04/27 04:46:34;;;;;;;16.23;11.55;;;;;;;13.43;97.70;100341.78;5107084;28;20041;-69
2022/04/27 04:48:59;;;;;;;15.63;12.13;;;;;;;13.46;97.31;100346.00;5115606;28;20036;-69
2022/04/27 04:51:25;;;;;;;17.40;12.23;;;;;;;13.45;97.63;100347.84;5124789;28;20034;-69
2022/04/27 04:53:50;;;;;;;15.82;10.88;;;;;;;13.42;97.29;100342.75;5125390;28;20072;-69
2022/04/27 04:56:16;;;;;;;13.38;11.30;;;;;;;13.51;96.62;100352.63;5123773;28;20489;-68
2022/04/27 04:58:42;;;;;;;17.77;12.00;;;;;;;13.49;96.71;100356.47;5120969;28;20110;-69
2022/04/27 05:01:07;;;;;;;15.15;10.85;;;;;;;13.49;96.54;100362.72;5114679;28;20467;-68
2022/04/27 05:03:36;;;;;;;13.32;10.80;;;;;;;13.44;95.99;100342.59;5110147;28;20032;-68
2022/04/27 05:06:03;;;;;;;13.60;10.45;;;;;;;13.55;95.95;100363.97;5121342;28;20023;-69
2022/04/27 05:08:28;;;;;;;14.10;10.90;;;;;;;13.51;95.57;100366.09;5119730;28;20038;-67
2022/04/27 05:10:54;;;;;;;14.02;11.23;;;;;;;13.44;96.08;100356.06;5118127;28;20062;-69
2022/04/27 05:13:19;;;;;;;13.98;11.18;;;;;;;13.42;96.55;100358.91;5126730;28;20023;-70
2022/04/27 05:15:45;;;;;;;14.25;10.70;;;;;;;13.53;96.48;100379.41;5099382;28;20109;-70
2022/04/27 05:18:10;;;;;;;15.50;11.80;;;;;;;13.51;95.74;100386.78;5114764;28;20024;-70
2022/04/27 05:20:38;;;;;;;16.13;11.18;;;;;;;13.45;95.57;100385.56;5123506;28;20375;-69
2022/04/27 05:23:03;;;;;;;16.27;11.18;;;;;;;13.55;95.06;100396.28;5123644;28;20030;-69
2022/04/27 05:25:29;;;;;;;14.20;10.95;;;;;;;13.47;94.51;100388.97;5126272;28;20031;-69
2022/04/27 05:27:54;;;;;;;12.90;10.90;;;;;;;13.48;95.23;100395.22;5105705;28;20027;-68
2022/04/27 05:33:04;;;;;;;15.15;11.20;;;;;;;13.47;95.14;100398.88;5130436;28;20084;-69
2022/04/27 05:35:29;;;;;;;15.73;10.93;;;;;;;13.47;94.65;100393.50;5131948;28;20027;-69
2022/04/27 05:37:55;;;;;;;12.73;10.45;;;;;;;13.51;94.02;100406.50;5123355;28;20052;-69
2022/04/27 05:40:21;;;;;;;12.18;9.63;;;;;;;13.56;94.45;100406.06;5127502;28;20031;-68
2022/04/27 05:42:48;;;;;;;16.02;11.13;;;;;;;13.46;94.78;100400.75;5124544;28;20559;-68
2022/04/27 05:45:14;;;;;;;14.52;12.18;;;;;;;13.57;94.95;100418.53;5111278;28;20015;-68
2022/04/27 05:47:40;;;;;;;12.73;10.38;;;;;;;13.56;95.24;100420.41;5128257;28;20034;-69
2022/04/27 05:50:06;;;;;;;13.80;11.35;;;;;;;13.59;95.09;100428.19;5131299;28;20027;-68
2022/04/27 05:52:50;;;;;;;13.48;11.30;;;;;;;13.63;95.30;100428.72;5114208;27;20074;-68
2022/04/27 05:55:15;;;;;;;16.73;12.68;;;;;;;13.65;95.04;100427.56;5135315;27;20035;-68
2022/04/27 05:57:41;;;;;;;17.05;11.75;;;;;;;13.66;93.73;100423.03;5122199;27;20071;-68
2022/04/27 06:00:07;;;;;;;15.18;11.88;;;;;;;13.73;93.94;100431.38;5130126;27;20046;-68
2022/04/27 06:02:33;;;;;;;13.23;11.35;;;;;;;13.76;94.31;100431.06;5127354;27;20206;-68
2022/04/27 06:04:58;;;;;;;16.10;11.15;;;;;;;13.75;94.25;100419.41;5116713;27;20084;-68
2022/04/27 06:07:25;;;;;;;15.80;11.10;;;;;;;13.85;93.29;100438.22;5135218;27;20019;-69
2022/04/27 06:09:50;;;;;;;15.82;11.98;;;;;;;13.87;92.47;100429.00;5134930;27;20094;-68
2022/04/27 06:12:15;;;;;;;15.05;11.40;;;;;;;14.00;93.02;100436.69;5134854;27;20119;-68
2022/04/27 06:14:41;;;;;;;13.57;11.20;;;;;;;14.08;92.03;100443.00;5134870;27;20115;-68
2022/04/27 06:17:08;;;;;;;14.90;11.30;;;;;;;14.12;91.53;100436.28;5134816;27;20368;-68
2022/04/27 06:19:33;;;;;;;16.80;10.32;;;;;;;14.24;90.79;100454.00;5126725;27;20023;-68
2022/04/27 06:21:59;;;;;;;14.35;11.77;;;;;;;14.30;90.33;100445.28;5134703;27;20118;-68
2022/04/27 06:24:26;;;;;;;15.13;11.52;;;;;;;14.31;88.70;100433.47;5118286;27;20024;-68
2022/04/27 06:26:53;;;;;;;16.50;12.27;;;;;;;14.55;88.30;100463.38;5117431;27;20086;-68
2022/04/27 06:29:19;;;;;;;13.40;10.80;;;;;;;14.56;87.90;100431.81;5130489;27;20103;-68
2022/04/27 06:31:45;;;;;;;16.70;12.13;;;;;;;14.83;87.42;100456.00;5114595;28;20110;-68
2022/04/27 06:34:12;;;;;;;14.30;11.00;;;;;;;14.97;87.39;100458.97;5130764;27;20030;-68
2022/04/27 06:36:39;;;;;;;14.45;11.63;;;;;;;15.06;86.57;100455.28;5118962;27;20158;-69
2022/04/27 06:39:07;;;;;;;15.40;12.10;;;;;;;15.16;83.78;100452.50;5120964;27;20038;-69
2022/04/27 06:41:33;;;;;;;14.80;11.15;;;;;;;15.25;83.00;100452.34;5129088;27;20161;-69
2022/04/27 06:43:58;;;;;;;13.68;11.15;;;;;;;15.41;82.28;100457.88;5134364;27;20015;-69
2022/04/27 06:46:24;;;;;;;13.85;11.23;;;;;;;15.52;81.50;100456.75;5134264;27;20586;-69
2022/04/27 06:48:49;;;;;;;16.58;11.30;;;;;;;15.65;80.66;100463.41;5126971;27;20044;-69
2022/04/27 06:51:17;;;;;;;14.68;11.63;;;;;;;15.72;80.86;100452.75;5113819;28;20110;-69
2022/04/27 06:53:43;;;;;;;13.55;11.25;;;;;;;15.84;79.75;100460.38;5113539;28;20387;-69
2022/04/27 06:56:09;;;;;;;15.35;11.93;;;;;;;15.97;78.72;100457.22;5113791;28;20032;-69
2022/04/27 06:58:35;;;;;;;13.43;11.48;;;;;;;16.06;78.44;100453.53;5123816;27;20035;-69
2022/04/27 07:01:05;;;;;;;14.35;11.25;;;;;;;16.07;76.04;100444.41;5108774;28;20031;-69
2022/04/27 07:03:33;;;;;;;15.70;12.65;;;;;;;16.18;76.60;100454.06;5114926;27;20106;-69
2022/04/27 07:06:00;;;;;;;12.82;9.80;;;;;;;16.40;77.15;100466.91;5110695;28;20172;-69
2022/04/27 07:08:26;;;;;;;15.20;11.38;;;;;;;16.55;76.24;100462.56;5129835;27;20031;-69
2022/04/27 07:10:51;;;;;;;14.32;10.90;;;;;;;16.67;74.01;100462.03;5133975;27;20034;-69
2022/04/27 07:13:17;;;;;;;13.75;11.93;;;;;;;16.75;73.10;100467.47;5099787;27;20034;-70
2022/04/27 07:15:42;;;;;;;15.15;11.80;;;;;;;16.85;73.09;100467.28;5128532;27;20055;-70
2022/04/27 07:18:08;;;;;;;12.75;10.95;;;;;;;16.95;72.57;100466.09;5115213;27;20104;-70
2022/04/27 07:20:33;;;;;;;12.63;10.73;;;;;;;17.04;73.20;100477.75;5131805;27;20033;-70
2022/04/27 07:22:59;;;;;;;12.85;11.25;;;;;;;17.10;71.67;100474.38;5112893;28;20024;-70
2022/04/27 07:25:24;;;;;;;14.77;12.18;;;;;;;17.21;70.93;100477.56;5123877;27;20058;-70
2022/04/27 07:27:50;;;;;;;15.00;12.35;;;;;;;17.30;70.35;100467.53;5120906;27;20024;-70
2022/04/27 07:30:15;;;;;;;15.15;12.55;;;;;;;17.41;69.26;100475.31;5118116;27;20494;-70
2022/04/27 07:32:41;;;;;;;15.48;12.20;;;;;;;17.48;68.49;100469.03;5103601;27;20019;-70
2022/04/27 07:35:07;;;;;;;16.33;12.07;;;;;;;17.54;68.65;100462.91;5133270;27;20049;-70
2022/04/27 07:37:36;;;;;;;18.30;12.18;;;;;;;17.68;68.94;100466.75;5115034;27;20084;-70
2022/04/27 07:40:02;;;;;;;15.57;11.93;;;;;;;17.82;69.28;100475.00;5133322;27;20043;-70
2022/04/27 07:42:27;;;;;;;14.20;10.93;;;;;;;17.95;67.16;100472.53;5130585;27;20117;-71
2022/04/27 07:44:53;;;;;;;16.45;11.57;;;;;;;18.04;67.38;100476.91;5101215;28;20480;-70
2022/04/27 07:47:18;;;;;;;18.00;13.02;;;;;;;18.03;65.94;100477.91;5112885;28;20038;-70
2022/04/27 07:49:46;;;;;;;15.18;11.77;;;;;;;18.13;66.01;100485.84;5115327;27;20031;-70
2022/04/27 07:52:11;;;;;;;15.02;13.10;;;;;;;18.19;64.40;100479.72;5112568;28;20438;-70
2022/04/27 07:54:37;;;;;;;15.45;12.38;;;;;;;18.24;65.69;100477.28;5128770;27;20105;-70
2022/04/27 07:57:02;;;;;;;14.35;12.18;;;;;;;18.34;65.87;100482.50;5127467;27;20023;-70
2022/04/27 07:59:29;;;;;;;15.88;12.32;;;;;;;18.44;65.68;100485.84;5110325;28;20055;-70
2022/04/27 08:01:54;;;;;;;16.58;12.20;;;;;;;18.54;65.70;100484.56;5112530;28;20384;-70
2022/04/27 08:04:19;;;;;;;14.50;11.95;;;;;;;18.59;65.21;100487.59;5093526;28;20042;-70
2022/04/27 08:06:45;;;;;;;13.50;12.02;;;;;;;18.76;64.73;100480.16;5117076;27;20035;-70
2022/04/27 08:09:10;;;;;;;15.15;12.15;;;;;;;18.76;64.29;100491.84;5099233;28;20023;-66
2022/04/27 08:11:36;;;;;;;15.82;12.23;;;;;;;18.82;63.60;100496.56;5117026;27;20023;-66
2022/04/27 08:14:01;;;;;;;17.65;12.52;;;;;;;18.94;63.50;100499.69;5125864;27;20030;-66
2022/04/27 08:16:26;;;;;;;15.35;12.55;;;;;;;19.03;62.68;100496.72;5124062;27;20027;-66
2022/04/27 08:18:52;;;;;;;17.10;12.57;;;;;;;19.14;62.24;100493.53;5092594;28;20019;-66
2022/04/27 08:21:21;;;;;;;16.00;13.30;;;;;;;19.25;61.95;100489.53;5110410;28;20027;-66
2022/04/27 08:23:48;;;;;;;16.50;12.18;;;;;;;19.42;60.87;100491.94;5121450;27;20083;-67
2022/04/27 08:26:13;;;;;;;15.35;11.82;;;;;;;19.66;59.93;100485.34;5103154;28;20084;-66
2022/04/27 08:28:41;;;;;;;15.95;12.75;;;;;;;19.95;59.34;100494.31;5120169;27;20023;-66
2022/04/27 08:31:08;;;;;;;14.63;13.00;;;;;;;20.43;58.02;100491.94;5122995;27;20031;-64
2022/04/27 08:33:34;;;;;;;14.75;12.23;;;;;;;20.80;56.88;100492.53;5131020;27;20039;-64
2022/04/27 08:36:00;;;;;;;33.17;13.50;;;;;;;20.98;54.62;100487.47;5125872;27;20168;-64
2022/04/27 08:38:27;;;;;;;13.88;10.55;;;;;;;20.97;55.08;100490.41;5094656;28;20543;-64
2022/04/27 08:40:53;;;;;;;14.23;10.80;;;;;;;20.90;55.15;100500.38;5110678;28;20376;-64
2022/04/27 08:43:21;;;;;;;15.52;11.90;;;;;;;20.89;54.81;100499.53;5092175;28;20055;-68
2022/04/27 08:45:47;;;;;;;12.60;11.27;;;;;;;20.60;54.89;100493.41;5129629;27;20053;-69
2022/04/27 08:48:14;;;;;;;15.77;11.65;;;;;;;20.28;55.37;100494.72;5131004;28;20023;-69
2022/04/27 08:50:40;;;;;;;14.50;11.68;;;;;;;20.15;55.92;100489.97;5125891;28;20062;-65
2022/04/27 08:53:06;;;;;;;13.43;11.32;;;;;;;20.14;57.14;100493.75;5111749;28;20051;-65
2022/04/27 08:55:32;;;;;;;15.43;12.68;;;;;;;20.09;56.96;100489.88;5124417;28;20046;-65
2022/04/27 08:58:07;;;;;;;13.07;11.68;;;;;;;20.12;57.04;100487.63;5120977;28;20480;-65
2022/04/27 09:00:33;;;;;;;14.15;12.68;;;;;;;20.13;57.28;100488.50;5105313;28;20035;-65
2022/04/27 09:03:27;;;;;;;14.48;12.98;;;;;;;20.02;57.57;100484.34;5105102;28;20493;-65
2022/04/27 09:06:20;;;;;;;13.35;11.95;;;;;;;20.11;57.52;100483.22;5128966;28;20363;-65
2022/04/27 09:08:55;;;;;;;13.13;11.73;;;;;;;20.02;58.44;100480.75;5115776;28;20476;-65
2022/04/27 09:11:26;;;;;;;15.48;11.88;;;;;;;20.07;58.89;100481.91;5118203;28;20474;-65
2022/04/27 09:13:59;;;;;;;14.80;11.88;;;;;;;20.10;58.23;100486.97;5119318;28;20023;-68
2022/04/27 09:16:27;;;;;;;13.50;12.07;;;;;;;20.13;57.95;100483.03;5129282;28;20043;-69
2022/04/27 09:21:52;;;;;;;12.13;10.68;;;;;;;20.21;55.35;100491.09;5123369;28;20054;-69
2022/04/27 09:24:18;;;;;;;13.43;11.02;;;;;;;20.14;55.84;100471.09;5111339;28;20472;-69
2022/04/27 09:26:44;;;;;;;14.23;11.73;;;;;;;20.23;55.55;100485.44;5098429;28;20035;-69
2022/04/27 09:29:23;;;;;;;13.63;11.30;;;;;;;20.22;56.51;100479.19;5108126;28;20387;-69
2022/04/27 09:31:56;;;;;;;14.15;12.65;;;;;;;20.22;55.24;100473.72;5104685;27;20116;-69
2022/04/27 09:34:31;;;;;;;14.93;11.68;;;;;;;20.28;55.17;100458.47;5114387;28;20485;-69
2022/04/27 09:37:05;;;;;;;14.23;10.77;;;;;;;20.38;54.57;100480.81;5113803;28;20063;-69
2022/04/27 09:39:30;;;;;;;12.13;10.43;;;;;;;20.35;55.45;100475.75;5103426;28;20055;-69
2022/04/27 09:42:06;;;;;;;15.20;10.77;;;;;;;20.31;54.67;100474.44;5114690;28;20078;-69
2022/04/27 09:44:33;;;;;;;13.23;11.35;;;;;;;20.18;55.68;100478.69;5125522;27;20052;-69
2022/04/27 09:47:03;;;;;;;15.20;9.93;;;;;;;20.17;56.43;100463.41;5115017;28;20425;-70
2022/04/27 09:49:29;;;;;;;12.63;10.07;;;;;;;20.17;56.43;100465.28;5127989;27;20463;-70
2022/04/27 09:51:55;;;;;;;15.13;9.18;;;;;;;20.22;55.86;100465.56;5128850;27;20084;-70
2022/04/27 09:54:24;;;;;;;10.52;8.18;;;;;;;20.26;55.80;100469.56;5122735;27;20098;-64
2022/04/27 09:56:54;;;;;;;8.55;7.18;;;;;;;20.28;54.64;100469.38;5131928;27;20418;-65
2022/04/27 09:59:30;;;;;;;8.88;5.75;;;;;;;20.24;53.98;100474.34;5098681;28;20050;-65
2022/04/27 10:02:00;;;;;;;8.35;6.93;;;;;;;20.20;53.14;100470.34;5103086;28;20023;-66
2022/04/27 10:04:28;;;;;;;8.48;7.15;;;;;;;20.18;53.04;100465.09;5119111;27;20084;-65
2022/04/27 10:07:00;;;;;;;9.45;7.72;;;;;;;20.11;54.13;100466.00;5128181;27;20124;-65
2022/04/27 10:09:27;;;;;;;9.93;8.07;;;;;;;20.19;54.60;100476.84;5123992;27;20034;-66
2022/04/27 10:11:58;;;;;;;12.25;8.43;;;;;;;20.10;54.97;100458.88;5120454;27;20024;-67
2022/04/27 10:14:25;;;;;;;9.68;8.18;;;;;;;20.23;54.51;100480.00;5122938;27;20505;-65
2022/04/27 10:16:52;;;;;;;10.27;8.73;;;;;;;20.25;53.40;100469.75;5128930;27;20160;-65
2022/04/27 10:19:18;;;;;;;10.90;8.55;;;;;;;19.99;54.01;100470.25;5106674;27;20535;-65
2022/04/27 10:21:58;;;;;;;10.13;8.05;;;;;;;20.01;54.47;100477.22;5133457;27;20030;-65
2022/04/27 10:24:42;;;;;;;9.55;8.18;;;;;;;19.98;54.44;100480.31;5120811;27;20646;-64
2022/04/27 10:27:14;;;;;;;9.95;8.40;;;;;;;19.96;54.47;100478.84;5116730;27;20015;-65
2022/04/27 10:29:40;;;;;;;9.70;8.48;;;;;;;19.95;55.07;100468.97;5117082;27;20482;-64
2022/04/27 10:32:06;;;;;;;9.48;8.15;;;;;;;20.05;55.04;100481.25;5131058;27;20035;-65
2022/04/27 10:34:33;;;;;;;9.85;8.50;;;;;;;19.99;54.93;100479.28;5127254;27;20807;-65
2022/04/27 10:37:03;;;;;;;8.50;7.60;;;;;;;20.03;54.57;100466.97;5110894;28;20455;-65
2022/04/27 10:39:32;;;;;;;11.73;8.20;;;;;;;19.98;54.75;100480.31;5101605;28;20050;-65
2022/04/27 10:42:03;;;;;;;8.88;7.03;;;;;;;19.98;55.10;100471.31;5113352;28;20545;-65
2022/04/27 10:44:47;;;;;;;10.30;9.20;;;;;;;20.03;55.23;100483.31;5125245;27;20077;-65
2022/04/27 10:47:14;;;;;;;10.95;8.80;;;;;;;20.00;55.16;100480.13;5116799;27;20126;-65
2022/04/27 10:49:40;;;;;;;10.98;8.73;;;;;;;19.90;54.84;100472.25;5107846;27;20038;-65
2022/04/27 10:52:07;;;;;;;10.32;7.15;;;;;;;19.95;55.00;100480.69;5122213;27;20080;-65
2022/04/27 10:54:34;;;;;;;10.02;8.90;;;;;;;19.92;54.44;100475.63;5111945;27;20038;-65
2022/04/27 10:57:15;;;;;;;10.15;9.00;;;;;;;19.81;55.10;100473.41;5127339;27;20035;-65
2022/04/27 10:59:47;;;;;;;9.63;7.93;;;;;;;19.82;55.82;100466.94;5093985;28;20035;-66
2022/04/27 11:02:35;;;;;;;11.82;9.27;;;;;;;19.86;55.38;100467.38;5130598;27;20035;-65
2022/04/27 11:05:21;;;;;;;13.25;8.93;;;;;;;19.89;55.71;100476.00;5132847;27;20035;-66
2022/04/27 11:08:11;;;;;;;11.82;9.30;;;;;;;20.02;55.09;100472.59;5121713;27;20032;-66
2022/04/27 11:10:38;;;;;;;14.43;9.95;;;;;;;20.01;54.87;100462.75;5120099;27;20038;-65
2022/04/27 11:13:07;;;;;;;11.93;9.05;;;;;;;19.99;54.96;100478.44;5100667;27;20097;-65
2022/04/27 11:15:33;;;;;;;13.18;9.15;;;;;;;19.88;54.41;100473.47;5121679;27;20043;-66
2022/04/27 11:18:03;;;;;;;10.43;8.82;;;;;;;19.85;54.09;100480.16;5113955;27;20104;-65
2022/04/27 11:20:37;;;;;;;11.90;8.88;;;;;;;19.73;54.27;100451.72;5124345;27;20035;-66
2022/04/27 11:23:07;;;;;;;;;;;;;;;19.81;54.18;100481.59;5122263;27;20056;-66